Terminal Aerodrome Forecast
Issued by NWS Boston, MA

Home | Current Version | Previous Version | Text Only | Print | Product List | Glossary On
Versions: 1 2 3 4 5 6 7 8 9 10 11 12 13 14 15 16 17 18 19 20 21 22 23 24 25
000
FTUS41 KBOX 311129
TAFBOS
TAF
KBOS 311129Z 3112/0118 35006KT P6SM BKN060
     FM311300 02006KT P6SM BKN050
     FM311600 06008KT P6SM BKN050
     FM010600 03012KT P6SM OVC050
     FM011200 02015KT P6SM -RA OVC025=

USA.gov is the U.S. government's official web portal to all federal, state and local government web resources and services.